Time;durP1;ratioP1;P1;durP2;ratioP2;P2;SDS_P1;SDS_P2;PMS_P1;PMS_P2;Temp;Humidity;BMP_temperature;BMP_pressure;BME280_temperature;BME280_humidity;BME280_pressure;Samples;Min_cycle;Max_cycle;Signal;HPM_P1;HPM_P2
2024/03/04 00:02:12;;;;;;;;;;;;;;;20.37;43.67;94249.75;10504329;28;2374;-68
2024/03/04 00:07:12;;;;;;;;;;;;;;;20.38;43.22;94251.28;10506114;28;2053;-67
2024/03/04 00:12:14;;;;;;;;;;;;;;;20.36;43.72;94257.97;10503045;28;1958;-66
2024/03/04 00:17:14;;;;;;;;;;;;;;;20.34;43.73;94260.88;10508356;28;2243;-66
2024/03/04 00:22:14;;;;;;;;;;;;;;;20.33;43.39;94264.63;10511040;28;1919;-66
2024/03/04 00:27:14;;;;;;;;;;;;;;;20.32;43.36;94263.03;10503947;28;2122;-69
2024/03/04 00:32:15;;;;;;;;;;;;;;;20.31;43.51;94255.47;10509940;28;2057;-67
2024/03/04 00:37:16;;;;;;;;;;;;;;;20.28;43.34;94262.91;10507967;28;2045;-67
2024/03/04 00:42:17;;;;;;;;;;;;;;;20.28;43.33;94276.06;10504416;28;2129;-69
2024/03/04 00:47:17;;;;;;;;;;;;;;;20.27;43.12;94276.38;10502670;28;2373;-67
2024/03/04 00:52:18;;;;;;;;;;;;;;;20.25;43.27;94268.78;10504995;28;2070;-67
2024/03/04 00:57:19;;;;;;;;;;;;;;;20.24;43.27;94269.06;10511071;28;1909;-67
2024/03/04 01:02:20;;;;;;;;;;;;;;;20.22;43.03;94269.38;10518640;28;2237;-68
2024/03/04 01:07:20;;;;;;;;;;;;;;;20.22;43.21;94279.13;10515538;28;1991;-67
2024/03/04 01:12:21;;;;;;;;;;;;;;;20.20;43.17;94283.91;10506036;28;1970;-67
2024/03/04 01:17:21;;;;;;;;;;;;;;;20.18;42.96;94278.16;10505356;28;1950;-68
2024/03/04 01:22:21;;;;;;;;;;;;;;;20.17;42.82;94282.63;10509425;28;2102;-68
2024/03/04 01:27:21;;;;;;;;;;;;;;;20.16;42.82;94280.31;10500019;28;2040;-67
2024/03/04 01:32:24;;;;;;;;;;;;;;;20.16;42.71;94288.22;10514104;28;2294;-68
2024/03/04 01:37:24;;;;;;;;;;;;;;;20.14;42.92;94295.63;10506501;28;2041;-68
2024/03/04 01:42:25;;;;;;;;;;;;;;;20.12;42.97;94290.69;10502411;28;1937;-68
2024/03/04 01:47:25;;;;;;;;;;;;;;;20.12;42.93;94295.16;10504131;28;2294;-67
2024/03/04 01:52:26;;;;;;;;;;;;;;;20.10;42.99;94305.22;10505274;28;2002;-68
2024/03/04 01:57:27;;;;;;;;;;;;;;;20.09;42.95;94306.31;10503848;28;1945;-68
2024/03/04 02:02:29;;;;;;;;;;;;;;;20.09;42.78;94306.31;10505972;28;2045;-68
2024/03/04 02:07:29;;;;;;;;;;;;;;;20.08;43.00;94312.63;10506477;28;1980;-67
2024/03/04 02:12:29;;;;;;;;;;;;;;;20.07;42.79;94321.63;10511912;28;2030;-70
2024/03/04 02:17:30;;;;;;;;;;;;;;;20.05;42.71;94316.66;10505649;28;2143;-68
2024/03/04 02:22:30;;;;;;;;;;;;;;;20.05;42.65;94332.44;10520201;28;2030;-70
2024/03/04 02:27:31;;;;;;;;;;;;;;;20.03;42.60;94323.31;10518255;28;2464;-69
2024/03/04 02:32:31;;;;;;;;;;;;;;;20.02;42.50;94327.78;10510998;28;2253;-69
2024/03/04 02:37:32;;;;;;;;;;;;;;;20.00;42.33;94321.28;10519334;28;2053;-69
2024/03/04 02:42:36;;;;;;;;;;;;;;;20.00;42.20;94339.69;10511974;28;2052;-69
2024/03/04 02:47:36;;;;;;;;;;;;;;;19.97;41.97;94335.81;10517208;28;2038;-68
2024/03/04 02:52:36;;;;;;;;;;;;;;;19.96;41.78;94344.00;10514256;28;2029;-68
2024/03/04 02:57:36;;;;;;;;;;;;;;;19.95;41.94;94359.00;10510794;28;1961;-68
2024/03/04 03:02:37;;;;;;;;;;;;;;;19.95;41.84;94360.84;10513365;28;1974;-68
2024/03/04 03:07:37;;;;;;;;;;;;;;;19.93;41.73;94360.38;10509991;28;1945;-68
2024/03/04 03:12:38;;;;;;;;;;;;;;;19.91;41.74;94370.41;10518205;28;2001;-68
2024/03/04 03:17:38;;;;;;;;;;;;;;;19.91;41.60;94380.94;10507697;28;2214;-68
2024/03/04 03:22:38;;;;;;;;;;;;;;;19.88;41.24;94382.34;10504612;28;2232;-68
2024/03/04 03:27:39;;;;;;;;;;;;;;;19.88;41.23;94394.72;10505181;28;1973;-69
2024/03/04 03:32:39;;;;;;;;;;;;;;;19.86;41.11;94391.59;10511223;28;2057;-68
2024/03/04 03:37:40;;;;;;;;;;;;;;;19.86;41.28;94407.38;10508736;28;2197;-68
2024/03/04 03:42:42;;;;;;;;;;;;;;;19.84;40.89;94426.09;10512606;28;2026;-68
2024/03/04 03:47:42;;;;;;;;;;;;;;;19.83;41.08;94434.25;10514932;28;2029;-68
2024/03/04 03:52:42;;;;;;;;;;;;;;;19.81;40.82;94439.81;10511767;28;2033;-68
2024/03/04 03:57:43;;;;;;;;;;;;;;;19.82;40.78;94443.25;10513989;28;2100;-68
2024/03/04 04:02:43;;;;;;;;;;;;;;;19.78;40.99;94448.34;10498788;28;2041;-68
2024/03/04 04:07:43;;;;;;;;;;;;;;;19.78;40.55;94450.19;10502857;28;2026;-68
2024/03/04 04:12:44;;;;;;;;;;;;;;;19.77;40.52;94451.25;10517287;28;2057;-69
2024/03/04 04:17:44;;;;;;;;;;;;;;;19.76;40.73;94454.97;10502989;28;2062;-68
2024/03/04 04:22:45;;;;;;;;;;;;;;;19.75;40.32;94461.28;10513206;28;1958;-68
2024/03/04 04:27:46;;;;;;;;;;;;;;;19.74;40.42;94462.38;10510083;28;2052;-68
2024/03/04 04:32:46;;;;;;;;;;;;;;;19.72;40.44;94480.28;10506829;28;2106;-68
2024/03/04 04:37:46;;;;;;;;;;;;;;;19.71;40.23;94491.88;10509506;28;2099;-68
2024/03/04 04:42:47;;;;;;;;;;;;;;;19.71;40.42;94497.13;10507980;28;2327;-67
2024/03/04 04:47:47;;;;;;;;;;;;;;;19.69;40.28;94505.31;10511979;28;1917;-69
2024/03/04 04:52:47;;;;;;;;;;;;;;;19.69;40.25;94517.69;10503435;28;2085;-68
2024/03/04 04:57:47;;;;;;;;;;;;;;;19.68;40.19;94537.16;10506852;28;2088;-69
2024/03/04 05:02:48;;;;;;;;;;;;;;;19.67;40.05;94544.28;10502794;28;2019;-69
2024/03/04 05:07:48;;;;;;;;;;;;;;;19.66;39.88;94555.09;10508279;28;2092;-68
2024/03/04 05:12:49;;;;;;;;;;;;;;;19.68;39.65;94571.34;10511501;28;2003;-68
2024/03/04 05:17:50;;;;;;;;;;;;;;;19.73;39.57;94587.00;10511501;28;2135;-67
2024/03/04 05:22:50;;;;;;;;;;;;;;;19.80;39.26;94600.53;10507100;28;2097;-68
2024/03/04 05:27:51;;;;;;;;;;;;;;;19.89;39.21;94606.63;10510873;28;1970;-68
2024/03/04 05:32:52;;;;;;;;;;;;;;;19.96;39.11;94609.66;10519085;28;2012;-68
2024/03/04 05:37:52;;;;;;;;;;;;;;;20.03;38.88;94623.19;10508463;28;2148;-68
2024/03/04 05:42:52;;;;;;;;;;;;;;;20.08;38.99;94633.56;10507494;28;2440;-67
2024/03/04 05:47:53;;;;;;;;;;;;;;;20.13;38.54;94636.88;10517933;28;1873;-69
2024/03/04 05:52:54;;;;;;;;;;;;;;;20.19;38.49;94640.19;10516503;28;2018;-68
2024/03/04 05:57:54;;;;;;;;;;;;;;;20.21;38.24;94654.63;10520876;28;1987;-69
2024/03/04 06:02:54;;;;;;;;;;;;;;;20.26;38.57;94658.97;10515631;28;2070;-68
2024/03/04 06:07:58;;;;;;;;;;;;;;;20.30;38.03;94659.19;10518816;28;1976;-68
2024/03/04 06:12:58;;;;;;;;;;;;;;;20.33;38.11;94664.63;10520995;28;1887;-68
2024/03/04 06:17:59;;;;;;;;;;;;;;;20.35;38.16;94670.38;10526548;27;2062;-69
2024/03/04 06:23:02;;;;;;;;;;;;;;;20.40;38.11;94672.91;10508853;28;2361;-65
2024/03/04 06:28:02;;;;;;;;;;;;;;;20.42;38.18;94681.28;10511680;28;2097;-64
2024/03/04 06:33:02;;;;;;;;;;;;;;;20.42;37.41;94683.13;10512974;28;2316;-64
2024/03/04 06:38:03;;;;;;;;;;;;;;;20.42;37.46;94686.53;10507252;28;2005;-65
2024/03/04 06:43:03;;;;;;;;;;;;;;;20.46;37.45;94700.66;10512635;28;2045;-68
2024/03/04 06:48:04;;;;;;;;;;;;;;;20.50;37.36;94706.88;10517310;28;1997;-65
2024/03/04 06:53:08;;;;;;;;;;;;;;;20.53;36.97;94716.81;10523256;28;1919;-67
2024/03/04 06:58:09;;;;;;;;;;;;;;;20.57;36.86;94715.13;10510851;28;1992;-66
2024/03/04 07:03:09;;;;;;;;;;;;;;;20.62;36.92;94722.94;10510558;28;2085;-67
2024/03/04 07:08:10;;;;;;;;;;;;;;;20.63;36.79;94727.09;10512478;28;2504;-66
2024/03/04 07:13:10;;;;;;;;;;;;;;;20.65;36.69;94730.22;10509863;28;2068;-66
2024/03/04 07:18:10;;;;;;;;;;;;;;;20.69;36.68;94741.72;10503260;28;2044;-65
2024/03/04 07:23:10;;;;;;;;;;;;;;;20.71;36.40;94741.44;10510140;28;2027;-66
2024/03/04 07:28:11;;;;;;;;;;;;;;;20.70;36.62;94751.19;10514074;28;2136;-66
2024/03/04 07:33:12;;;;;;;;;;;;;;;20.76;36.42;94759.75;10510793;28;2100;-66
2024/03/04 07:38:12;;;;;;;;;;;;;;;20.76;35.78;94771.06;10506904;28;2054;-66
2024/03/04 07:43:12;;;;;;;;;;;;;;;20.75;36.52;94772.13;10504442;28;2110;-65
2024/03/04 07:48:12;;;;;;;;;;;;;;;20.79;36.10;94778.34;10510033;28;2508;-66
2024/03/04 07:53:13;;;;;;;;;;;;;;;20.82;35.76;94783.03;10504655;28;2049;-67
2024/03/04 07:58:13;;;;;;;;;;;;;;;20.84;35.69;94786.16;10509041;28;2033;-66
2024/03/04 08:03:15;;;;;;;;;;;;;;;20.83;36.08;94783.81;10505004;28;2051;-66
2024/03/04 08:08:16;;;;;;;;;;;;;;;20.86;35.63;94797.16;10521640;28;2051;-66
2024/03/04 08:13:16;;;;;;;;;;;;;;;20.87;36.09;94790.84;10509879;28;1913;-66
2024/03/04 08:18:16;;;;;;;;;;;;;;;20.90;35.87;94794.72;10503661;28;2012;-66
2024/03/04 08:23:16;;;;;;;;;;;;;;;20.89;35.79;94801.84;10502873;28;2054;-66
2024/03/04 08:28:19;;;;;;;;;;;;;;;20.91;35.48;94801.56;10503300;28;2242;-66
2024/03/04 08:33:19;;;;;;;;;;;;;;;20.95;35.62;94803.28;10502319;28;2216;-66
2024/03/04 08:38:20;;;;;;;;;;;;;;;20.94;35.82;94817.53;10508057;28;2073;-67
2024/03/04 08:43:20;;;;;;;;;;;;;;;20.97;35.72;94822.22;10503648;28;2348;-66
2024/03/04 08:48:21;;;;;;;;;;;;;;;20.98;35.67;94825.59;10503410;28;2196;-66
2024/03/04 08:53:22;;;;;;;;;;;;;;;21.00;35.00;94820.81;10510061;28;1924;-70
2024/03/04 08:58:22;;;;;;;;;;;;;;;21.02;35.36;94830.03;10500973;28;2049;-66
2024/03/04 09:03:23;;;;;;;;;;;;;;;21.02;35.11;94843.19;10507020;28;2202;-66
2024/03/04 09:08:25;;;;;;;;;;;;;;;21.04;35.02;94845.56;10500967;28;1980;-67
2024/03/04 09:13:26;;;;;;;;;;;;;;;21.04;35.07;94853.47;10501004;28;1919;-66
2024/03/04 09:18:26;;;;;;;;;;;;;;;21.07;35.18;94847.59;10499942;28;1970;-66
2024/03/04 09:23:27;;;;;;;;;;;;;;;21.08;34.94;94853.63;10498073;28;2112;-67
2024/03/04 09:28:27;;;;;;;;;;;;;;;21.07;35.04;94852.84;10506156;28;2348;-67
2024/03/04 09:33:27;;;;;;;;;;;;;;;21.10;34.54;94862.81;10501746;28;2118;-67
2024/03/04 09:38:27;;;;;;;;;;;;;;;21.13;34.91;94869.31;10506777;28;2061;-67
2024/03/04 09:43:28;;;;;;;;;;;;;;;21.14;34.72;94866.41;10506425;28;2161;-66
2024/03/04 09:48:28;;;;;;;;;;;;;;;21.16;34.58;94872.16;10523149;28;1857;-65
2024/03/04 09:53:28;;;;;;;;;;;;;;;21.16;34.79;94874.78;10507348;28;1975;-65
2024/03/04 09:58:29;;;;;;;;;;;;;;;21.17;34.35;94878.97;10504930;28;2290;-67
2024/03/04 10:03:29;;;;;;;;;;;;;;;21.17;34.42;94883.47;10508821;28;2041;-66
2024/03/04 10:08:29;;;;;;;;;;;;;;;21.20;34.95;94888.16;10502249;28;2461;-67
2024/03/04 10:13:30;;;;;;;;;;;;;;;21.20;34.62;94888.94;10502306;28;2029;-65
2024/03/04 10:18:30;;;;;;;;;;;;;;;21.19;34.49;94894.47;10509133;28;2067;-65
2024/03/04 10:23:30;;;;;;;;;;;;;;;21.20;34.11;94898.69;10504596;28;2088;-66
2024/03/04 10:28:35;;;;;;;;;;;;;;;21.20;34.73;94903.97;10511636;28;2012;-66
2024/03/04 10:33:38;;;;;;;;;;;;;;;21.18;34.96;94908.75;10513725;28;1886;-65
2024/03/04 10:38:40;;;;;;;;;;;;;;;21.21;34.58;94903.66;10513052;28;2069;-65
2024/03/04 10:43:42;;;;;;;;;;;;;;;21.19;34.04;94908.44;10526010;28;2026;-65
2024/03/04 10:48:42;;;;;;;;;;;;;;;21.22;34.04;94909.72;10505317;28;2037;-67
2024/03/04 10:53:42;;;;;;;;;;;;;;;21.22;34.34;94912.34;10505956;28;2491;-68
2024/03/04 10:58:43;;;;;;;;;;;;;;;21.22;34.50;94912.34;10517931;28;2085;-66
2024/03/04 11:03:46;;;;;;;;;;;;;;;21.21;34.45;94910.78;10510542;28;2013;-66
2024/03/04 11:08:54;;;;;;;;;;;;;;;21.20;34.63;94902.09;10503027;28;1980;-67
2024/03/04 11:14:04;;;;;;;;;;;;;;;21.21;34.16;94908.13;10501942;28;2003;-66
2024/03/04 11:19:07;;;;;;;;;;;;;;;21.21;34.33;94910.78;10504653;28;1982;-66
2024/03/04 11:24:08;;;;;;;;;;;;;;;21.21;34.48;94908.13;10501163;28;2233;-67
2024/03/04 11:29:09;;;;;;;;;;;;;;;21.21;34.28;94908.13;10506044;28;2060;-66
2024/03/04 11:34:10;;;;;;;;;;;;;;;21.19;34.08;94910.28;10516698;28;2422;-65
2024/03/04 11:39:24;;;;;;;;;;;;;;;21.20;34.11;94914.50;10503542;28;2061;-66
2024/03/04 11:44:25;;;;;;;;;;;;;;;21.20;34.32;94909.22;10507179;28;2038;-65
2024/03/04 11:49:26;;;;;;;;;;;;;;;21.21;34.35;94905.50;10513107;28;2099;-65
2024/03/04 11:54:37;;;;;;;;;;;;;;;21.23;33.84;94908.63;10520681;28;2022;-66
2024/03/04 11:59:39;;;;;;;;;;;;;;;21.22;33.99;94918.41;10509001;28;2035;-65
2024/03/04 12:04:40;;;;;;;;;;;;;;;21.22;34.27;94917.63;10507991;28;2048;-64
2024/03/04 12:09:41;;;;;;;;;;;;;;;21.22;33.90;94912.34;10511838;28;2173;-67
2024/03/04 12:14:45;;;;;;;;;;;;;;;21.21;33.82;94916.03;10512004;28;2118;-66
2024/03/04 12:19:51;;;;;;;;;;;;;;;21.21;34.12;94922.09;10508467;28;2595;-67
2024/03/04 12:25:08;;;;;;;;;;;;;;;21.20;34.48;94917.13;10507920;28;2266;-65
2024/03/04 12:30:12;;;;;;;;;;;;;;;21.21;34.62;94923.94;10511076;28;1891;-65
2024/03/04 12:35:19;;;;;;;;;;;;;;;21.21;34.86;94919.47;10509461;28;1962;-68
2024/03/04 12:40:20;;;;;;;;;;;;;;;21.19;35.01;94915.56;10504770;28;1997;-67
2024/03/04 12:45:20;;;;;;;;;;;;;;;21.17;35.28;94915.09;10503925;28;2089;-66
2024/03/04 12:50:20;;;;;;;;;;;;;;;21.15;35.53;94914.59;10502300;28;2191;-66
2024/03/04 12:55:21;;;;;;;;;;;;;;;21.18;35.35;94911.38;10501691;28;1986;-66
2024/03/04 13:00:21;;;;;;;;;;;;;;;21.14;35.31;94905.94;10501592;28;2170;-66
2024/03/04 13:05:22;;;;;;;;;;;;;;;21.17;35.06;94909.81;10507001;28;1964;-70
2024/03/04 13:10:22;;;;;;;;;;;;;;;21.14;35.16;94913.06;10515329;28;1940;-66
2024/03/04 13:15:22;;;;;;;;;;;;;;;21.10;35.43;94904.97;10504028;28;2569;-67
2024/03/04 13:20:22;;;;;;;;;;;;;;;21.10;35.69;94915.50;10505308;28;2259;-66
2024/03/04 13:25:23;;;;;;;;;;;;;;;21.04;35.78;94917.47;10499012;28;1975;-66
2024/03/04 13:30:26;;;;;;;;;;;;;;;21.01;36.31;94918.03;10502785;28;1902;-66
2024/03/04 13:35:26;;;;;;;;;;;;;;;20.98;36.31;94923.09;10509565;28;2042;-65
2024/03/04 13:40:26;;;;;;;;;;;;;;;20.94;36.36;94920.28;10524025;28;2197;-66
2024/03/04 13:45:26;;;;;;;;;;;;;;;20.92;36.56;94925.06;10496520;28;2082;-66
2024/03/04 13:50:27;;;;;;;;;;;;;;;20.89;36.73;94924.88;10503950;28;2069;-67
2024/03/04 13:55:27;;;;;;;;;;;;;;;20.86;36.66;94915.72;10509027;28;2567;-66
2024/03/04 14:00:27;;;;;;;;;;;;;;;20.85;36.71;94919.44;10515268;28;2025;-66
2024/03/04 14:05:28;;;;;;;;;;;;;;;20.83;36.70;94908.41;10506308;28;2030;-66
2024/03/04 14:10:29;;;;;;;;;;;;;;;20.79;36.43;94910.03;10508471;28;1982;-65
2024/03/04 14:15:29;;;;;;;;;;;;;;;20.77;36.71;94906.94;10516967;28;2111;-66
2024/03/04 14:20:30;;;;;;;;;;;;;;;20.74;36.78;94909.38;10509233;28;2049;-67
2024/03/04 14:25:30;;;;;;;;;;;;;;;20.70;36.51;94911.03;10514830;28;2065;-65
2024/03/04 14:30:30;;;;;;;;;;;;;;;20.68;36.70;94916.59;10512716;28;1897;-66
2024/03/04 14:35:31;;;;;;;;;;;;;;;20.63;36.87;94906.16;10510236;28;2043;-65
2024/03/04 14:40:31;;;;;;;;;;;;;;;20.64;37.07;94909.59;10511184;28;2665;-65
2024/03/04 14:45:32;;;;;;;;;;;;;;;20.67;36.69;94916.91;10508568;28;1882;-70
2024/03/04 14:50:32;;;;;;;;;;;;;;;20.67;36.76;94922.19;10507004;28;1998;-67
2024/03/04 14:55:33;;;;;;;;;;;;;;;20.69;36.79;94920.03;10519157;28;2002;-66
2024/03/04 15:00:34;;;;;;;;;;;;;;;20.71;37.04;94923.16;10514928;28;1968;-66
2024/03/04 15:05:35;;;;;;;;;;;;;;;20.72;37.09;94925.47;10508402;28;1899;-67
2024/03/04 15:10:35;;;;;;;;;;;;;;;20.75;37.13;94932.78;10512263;28;1958;-66
2024/03/04 15:15:35;;;;;;;;;;;;;;;20.79;36.91;94923.22;10515734;28;2149;-65
2024/03/04 15:20:36;;;;;;;;;;;;;;;20.82;36.56;94925.28;10486170;28;2085;-67
2024/03/04 15:25:36;;;;;;;;;;;;;;;20.87;36.23;94927.03;10500365;28;2849;-65
2024/03/04 15:30:37;;;;;;;;;;;;;;;20.87;36.58;94933.09;10507092;28;2028;-66
2024/03/04 15:35:37;;;;;;;;;;;;;;;20.91;36.04;94931.41;10502767;28;2042;-66
2024/03/04 15:40:40;;;;;;;;;;;;;;;20.95;36.03;94934.22;10510681;28;1959;-65
2024/03/04 15:45:42;;;;;;;;;;;;;;;20.97;35.80;94940.00;10503783;28;2023;-66
2024/03/04 15:50:42;;;;;;;;;;;;;;;20.99;35.79;94943.91;10500536;28;2049;-65
2024/03/04 15:55:43;;;;;;;;;;;;;;;21.00;35.61;94940.16;10505318;28;2108;-64
2024/03/04 16:00:43;;;;;;;;;;;;;;;21.02;35.77;94940.69;10508725;28;2286;-65
2024/03/04 16:05:44;;;;;;;;;;;;;;;21.05;35.22;94937.47;10504904;28;2066;-66
2024/03/04 16:10:45;;;;;;;;;;;;;;;21.06;35.34;94954.06;10507309;28;2120;-66
2024/03/04 16:15:45;;;;;;;;;;;;;;;21.10;34.96;94952.41;10516449;28;2326;-65
2024/03/04 16:20:45;;;;;;;;;;;;;;;21.08;35.36;94955.31;10506915;28;2012;-66
2024/03/04 16:25:46;;;;;;;;;;;;;;;21.12;35.05;94957.38;10499457;28;2216;-66
2024/03/04 16:30:47;;;;;;;;;;;;;;;21.11;35.25;94964.50;10510729;28;1968;-65
2024/03/04 16:35:48;;;;;;;;;;;;;;;21.13;34.74;94977.38;10505972;28;1995;-66
2024/03/04 16:40:48;;;;;;;;;;;;;;;21.14;34.80;94978.94;10497658;28;2104;-65
2024/03/04 16:45:49;;;;;;;;;;;;;;;21.14;34.58;94977.09;10508251;28;2117;-68
2024/03/04 16:50:49;;;;;;;;;;;;;;;21.15;34.79;94975.22;10491988;28;2041;-67
2024/03/04 16:55:49;;;;;;;;;;;;;;;21.17;34.82;94973.84;10503941;28;1986;-67
2024/03/04 17:00:50;;;;;;;;;;;;;;;21.19;34.79;94981.44;10502811;28;2071;-65
2024/03/04 17:05:50;;;;;;;;;;;;;;;21.18;34.98;94991.25;10506831;28;1859;-66
2024/03/04 17:10:51;;;;;;;;;;;;;;;21.18;34.86;94993.88;10510343;28;2575;-67
2024/03/04 17:15:52;;;;;;;;;;;;;;;21.19;34.34;94998.06;10500420;28;1982;-66
2024/03/04 17:20:52;;;;;;;;;;;;;;;21.19;34.87;95007.81;10506939;28;2001;-67
2024/03/04 17:25:53;;;;;;;;;;;;;;;21.18;35.13;95004.41;10509479;28;2030;-66
2024/03/04 17:30:53;;;;;;;;;;;;;;;21.20;34.53;95009.38;10509746;28;2097;-65
2024/03/04 17:35:53;;;;;;;;;;;;;;;21.20;34.90;95007.53;10513983;28;2068;-66
2024/03/04 17:40:54;;;;;;;;;;;;;;;21.22;34.36;95018.56;10511906;28;1976;-66
2024/03/04 17:45:54;;;;;;;;;;;;;;;21.22;34.40;95018.56;10516666;28;2116;-66
2024/03/04 17:50:54;;;;;;;;;;;;;;;21.20;35.13;95019.94;10513918;28;2022;-67
2024/03/04 17:55:54;;;;;;;;;;;;;;;21.19;35.00;95026.25;10528667;28;1993;-67
2024/03/04 18:00:55;;;;;;;;;;;;;;;21.22;34.75;95023.03;10515595;28;2275;-70
2024/03/04 18:05:55;;;;;;;;;;;;;;;21.21;34.66;95029.38;10515355;28;2029;-70
2024/03/04 18:10:55;;;;;;;;;;;;;;;21.19;34.78;95039.44;10521468;28;2659;-68
2024/03/04 18:15:56;;;;;;;;;;;;;;;21.16;35.28;95040.03;10512812;28;2133;-67
2024/03/04 18:20:57;;;;;;;;;;;;;;;21.17;35.07;95041.59;10520155;28;2348;-67
2024/03/04 18:25:59;;;;;;;;;;;;;;;21.19;34.66;95039.44;10509144;28;2283;-65
2024/03/04 18:30:59;;;;;;;;;;;;;;;21.15;35.40;95041.88;10505659;28;1929;-65
2024/03/04 18:35:59;;;;;;;;;;;;;;;21.16;35.16;95045.31;10509310;28;2157;-65
2024/03/04 18:41:00;;;;;;;;;;;;;;;21.17;35.23;95042.38;10506919;28;2122;-66
2024/03/04 18:46:03;;;;;;;;;;;;;;;21.13;35.53;95046.66;10516945;28;2060;-66
2024/03/04 18:51:03;;;;;;;;;;;;;;;21.19;34.98;95053.41;10500563;28;2037;-65
2024/03/04 18:56:07;;;;;;;;;;;;;;;21.19;34.84;95045.50;10508192;28;2061;-66
2024/03/04 19:01:07;;;;;;;;;;;;;;;21.16;35.11;95051.38;10515700;28;2041;-66
2024/03/04 19:06:07;;;;;;;;;;;;;;;21.14;35.42;95050.88;10511784;28;2543;-66
2024/03/04 19:11:08;;;;;;;;;;;;;;;21.15;34.91;95057.69;10504958;28;1957;-65
2024/03/04 19:16:08;;;;;;;;;;;;;;;21.14;35.27;95063.28;10499291;28;2053;-66
2024/03/04 19:21:14;;;;;;;;;;;;;;;21.13;35.63;95066.97;10504374;28;1958;-66
2024/03/04 19:26:20;;;;;;;;;;;;;;;21.12;35.47;95070.69;10506453;28;2081;-67
2024/03/04 19:31:21;;;;;;;;;;;;;;;21.13;35.40;95069.59;10504082;28;2089;-65
2024/03/04 19:36:21;;;;;;;;;;;;;;;21.15;35.23;95070.88;10505074;28;1856;-65
2024/03/04 19:41:22;;;;;;;;;;;;;;;21.14;35.11;95069.31;10498784;28;2164;-65
2024/03/04 19:46:23;;;;;;;;;;;;;;;21.11;35.53;95069.91;10503856;28;2476;-66
2024/03/04 19:51:23;;;;;;;;;;;;;;;21.14;35.37;95068.53;10496082;28;2061;-66
2024/03/04 19:56:23;;;;;;;;;;;;;;;21.13;35.24;95067.75;10500076;28;2053;-65
2024/03/04 20:01:24;;;;;;;;;;;;;;;21.12;35.79;95070.69;10504866;28;1990;-66
2024/03/04 20:06:24;;;;;;;;;;;;;;;21.12;35.49;95076.75;10510831;28;2022;-65
2024/03/04 20:11:24;;;;;;;;;;;;;;;21.11;35.54;95069.13;10509212;28;2054;-65
2024/03/04 20:16:25;;;;;;;;;;;;;;;21.13;35.62;95067.75;10504527;28;2228;-64
2024/03/04 20:21:26;;;;;;;;;;;;;;;21.12;36.06;95054.88;10506605;28;1957;-65
2024/03/04 20:26:26;;;;;;;;;;;;;;;21.12;35.92;95052.25;10496997;28;2400;-65
2024/03/04 20:31:26;;;;;;;;;;;;;;;21.12;35.96;95054.88;10496713;28;2003;-65
2024/03/04 20:36:26;;;;;;;;;;;;;;;21.11;35.68;95055.94;10501501;28;2042;-65
2024/03/04 20:41:27;;;;;;;;;;;;;;;21.10;35.80;95063.09;10501648;28;1969;-63
2024/03/04 20:46:27;;;;;;;;;;;;;;;21.07;35.77;95058.38;10497291;28;1970;-62
2024/03/04 20:51:31;;;;;;;;;;;;;;;21.04;35.69;95059.00;10492681;28;2053;-62
2024/03/04 20:56:32;;;;;;;;;;;;;;;21.02;36.07;95069.00;10506043;28;2160;-63
2024/03/04 21:01:32;;;;;;;;;;;;;;;20.97;36.37;95072.50;10504653;28;1914;-64
2024/03/04 21:06:32;;;;;;;;;;;;;;;20.97;36.42;95072.50;10504419;28;1962;-67
2024/03/04 21:11:32;;;;;;;;;;;;;;;20.96;37.18;95073.56;10505819;28;2750;-66
2024/03/04 21:16:34;;;;;;;;;;;;;;;20.96;37.91;95072.78;10501491;28;1974;-66
2024/03/04 21:21:35;;;;;;;;;;;;;;;20.95;37.88;95076.50;10506641;28;2041;-67
2024/03/04 21:26:36;;;;;;;;;;;;;;;20.93;37.58;95078.66;10502749;28;1937;-67
2024/03/04 21:31:36;;;;;;;;;;;;;;;20.91;37.73;95071.03;10508517;28;2312;-71
2024/03/04 21:36:36;;;;;;;;;;;;;;;20.88;37.73;95071.63;10505741;28;2069;-67
2024/03/04 21:41:37;;;;;;;;;;;;;;;20.85;38.16;95068.78;10504394;28;2093;-66
2024/03/04 21:46:37;;;;;;;;;;;;;;;20.83;37.84;95073.56;10499660;28;2177;-66
2024/03/04 21:51:41;;;;;;;;;;;;;;;20.79;38.03;95081.25;10515194;28;1928;-67
2024/03/04 21:56:44;;;;;;;;;;;;;;;20.78;38.14;95082.34;10508886;28;2079;-67
2024/03/04 22:01:44;;;;;;;;;;;;;;;20.74;38.12;95086.63;10500088;28;2762;-67
2024/03/04 22:06:44;;;;;;;;;;;;;;;20.73;38.22;95098.22;10505288;28;1990;-66
2024/03/04 22:11:45;;;;;;;;;;;;;;;20.70;38.01;95093.53;10509029;28;1966;-68
2024/03/04 22:16:48;;;;;;;;;;;;;;;20.67;38.04;95091.47;10505824;28;2080;-66
2024/03/04 22:21:48;;;;;;;;;;;;;;;20.66;37.95;95084.66;10511057;28;1959;-68
2024/03/04 22:26:48;;;;;;;;;;;;;;;20.64;38.27;95091.28;10518293;28;1865;-66
2024/03/04 22:31:49;;;;;;;;;;;;;;;20.62;37.93;95085.53;10515420;28;2056;-67
2024/03/04 22:36:50;;;;;;;;;;;;;;;20.61;38.02;95087.38;10512034;28;2121;-68
2024/03/04 22:41:50;;;;;;;;;;;;;;;20.58;38.08;95095.06;10520064;28;2052;-67
2024/03/04 22:46:54;;;;;;;;;;;;;;;20.56;38.19;95095.38;10516352;28;2744;-67
2024/03/04 22:51:54;;;;;;;;;;;;;;;20.55;38.18;95103.53;10517526;28;1907;-67
2024/03/04 22:56:54;;;;;;;;;;;;;;;20.54;38.20;95101.97;10513135;28;1913;-67
2024/03/04 23:01:55;;;;;;;;;;;;;;;20.51;38.29;95099.91;10513169;28;2030;-67
2024/03/04 23:06:55;;;;;;;;;;;;;;;20.50;38.16;95101.78;10515697;28;1923;-67
2024/03/04 23:11:55;;;;;;;;;;;;;;;20.48;37.93;95098.66;10522133;28;1932;-67
2024/03/04 23:16:55;;;;;;;;;;;;;;;20.46;38.07;95097.38;10512560;28;1901;-68
2024/03/04 23:21:56;;;;;;;;;;;;;;;20.44;38.23;95096.88;10510842;28;1964;-66
2024/03/04 23:26:56;;;;;;;;;;;;;;;20.42;38.12;95107.72;10512887;28;1978;-65
2024/03/04 23:31:56;;;;;;;;;;;;;;;20.40;38.02;95112.47;10510500;28;1875;-66
2024/03/04 23:36:58;;;;;;;;;;;;;;;20.39;38.17;95116.16;10510878;28;1892;-68
2024/03/04 23:41:58;;;;;;;;;;;;;;;20.37;37.94;95118.31;10513635;28;2438;-66
2024/03/04 23:46:58;;;;;;;;;;;;;;;20.36;38.00;95118.59;10521845;28;1913;-66
2024/03/04 23:51:59;;;;;;;;;;;;;;;20.35;37.95;95127.56;10516101;28;1924;-67
2024/03/04 23:56:59;;;;;;;;;;;;;;;20.34;37.69;95133.91;10512454;28;1988;-66
